createdAt,value
2023-01-26T00:01:05.640Z,205
2023-01-26T00:02:14.808Z,210
2023-01-26T00:03:23.976Z,151
2023-01-26T00:04:33.143Z,144
2023-01-26T00:05:42.327Z,157
2023-01-26T00:06:50.534Z,177
2023-01-26T00:07:58.707Z,162
2023-01-26T00:09:06.921Z,151
2023-01-26T00:10:15.101Z,172
2023-01-26T00:11:24.275Z,170
2023-01-26T00:12:33.450Z,185
2023-01-26T00:13:42.639Z,165
2023-01-26T00:14:51.787Z,169
2023-01-26T00:16:00.959Z,174
2023-01-26T00:17:10.134Z,192
2023-01-26T00:18:19.329Z,171
2023-01-26T00:19:28.494Z,121
2023-01-26T00:20:37.661Z,157
2023-01-26T00:21:46.834Z,164
2023-01-26T00:22:56.008Z,152
2023-01-26T00:24:05.179Z,152
2023-01-26T00:25:13.368Z,161
2023-01-26T00:26:22.543Z,164
2023-01-26T00:27:31.709Z,163
2023-01-26T00:28:40.887Z,183
2023-01-26T00:29:50.074Z,163
2023-01-26T00:30:58.251Z,216
2023-01-26T00:32:07.436Z,176
2023-01-26T00:33:15.630Z,170
2023-01-26T00:34:23.823Z,170
2023-01-26T00:35:32.011Z,170
2023-01-26T00:36:40.201Z,182
2023-01-26T00:37:49.369Z,158
2023-01-26T00:38:58.555Z,198
2023-01-26T00:40:07.708Z,217
2023-01-26T00:41:16.893Z,181
2023-01-26T00:42:26.071Z,181
2023-01-26T00:43:35.243Z,154
2023-01-26T00:44:44.425Z,189
2023-01-26T00:45:53.584Z,200
2023-01-26T00:47:02.763Z,169
2023-01-26T00:48:11.933Z,192
2023-01-26T00:49:21.112Z,167
2023-01-26T00:50:30.279Z,156
2023-01-26T00:51:38.475Z,147
2023-01-26T00:52:47.642Z,182
2023-01-26T00:53:56.822Z,208
2023-01-26T00:55:05.986Z,190
2023-01-26T00:56:15.199Z,188
2023-01-26T00:57:24.362Z,146
2023-01-26T00:58:33.513Z,166
2023-01-26T00:59:41.714Z,168
2023-01-26T01:00:49.935Z,132
2023-01-26T01:01:58.112Z,173
2023-01-26T01:03:06.281Z,175
2023-01-26T01:04:15.453Z,177
2023-01-26T01:05:24.642Z,168
2023-01-26T01:06:33.801Z,180
2023-01-26T01:07:42.966Z,176
2023-01-26T01:08:52.144Z,150
2023-01-26T01:10:01.329Z,187
2023-01-26T01:11:10.497Z,193
2023-01-26T01:12:19.671Z,185
2023-01-26T01:13:28.838Z,180
2023-01-26T01:14:38.006Z,179
2023-01-26T01:15:47.195Z,166
2023-01-26T01:16:56.356Z,183
2023-01-26T01:18:05.548Z,183
2023-01-26T01:19:13.722Z,170
2023-01-26T01:20:22.904Z,194
2023-01-26T01:21:32.090Z,168
2023-01-26T01:22:41.247Z,179
2023-01-26T01:23:50.416Z,178
2023-01-26T01:24:59.590Z,175
2023-01-26T01:26:07.793Z,208
2023-01-26T01:27:15.989Z,188
2023-01-26T01:28:25.151Z,174
2023-01-26T01:29:33.346Z,168
2023-01-26T01:30:41.534Z,157
2023-01-26T01:31:50.732Z,181
2023-01-26T01:32:59.918Z,190
2023-01-26T01:34:09.090Z,181
2023-01-26T01:35:18.263Z,187
2023-01-26T01:36:27.430Z,180
2023-01-26T01:37:36.608Z,163
2023-01-26T01:38:45.800Z,175
2023-01-26T01:39:54.949Z,192
2023-01-26T01:41:04.142Z,181
2023-01-26T01:42:13.417Z,176
2023-01-26T01:43:22.474Z,124
2023-01-26T01:44:31.657Z,160
2023-01-26T01:45:39.842Z,179
2023-01-26T01:46:49.261Z,152
2023-01-26T01:47:58.192Z,180
2023-01-26T01:49:07.369Z,139
2023-01-26T01:50:16.557Z,139
2023-01-26T01:51:25.710Z,183
2023-01-26T01:52:34.886Z,164
2023-01-26T01:53:43.079Z,165
2023-01-26T01:54:51.261Z,176
2023-01-26T01:55:59.461Z,175
2023-01-26T01:57:07.775Z,151
2023-01-26T01:58:16.822Z,167
2023-01-26T01:59:25.987Z,180
2023-01-26T02:00:35.169Z,196
2023-01-26T02:01:44.339Z,167
2023-01-26T02:02:53.514Z,204
2023-01-26T02:04:02.710Z,147
2023-01-26T02:05:11.882Z,181
2023-01-26T02:06:21.046Z,174
2023-01-26T02:07:30.198Z,174
2023-01-26T02:08:39.379Z,180
2023-01-26T02:09:48.558Z,182
2023-01-26T02:10:57.737Z,207
2023-01-26T02:12:05.918Z,182
2023-01-26T02:13:15.080Z,196
2023-01-26T02:14:24.264Z,207
2023-01-26T02:15:33.449Z,200
2023-01-26T02:16:42.621Z,198
2023-01-26T02:17:51.790Z,169
2023-01-26T02:19:00.954Z,168
2023-01-26T02:20:09.168Z,181
2023-01-26T02:21:17.363Z,190
2023-01-26T02:22:25.532Z,187
2023-01-26T02:23:33.721Z,187
2023-01-26T02:24:42.900Z,176
2023-01-26T02:25:52.080Z,157
2023-01-26T02:27:01.251Z,157
2023-01-26T02:28:10.425Z,187
2023-01-26T02:29:19.587Z,160
2023-01-26T02:30:28.779Z,167
2023-01-26T02:31:37.937Z,150
2023-01-26T02:32:47.119Z,157
2023-01-26T02:33:56.299Z,159
2023-01-26T02:35:05.468Z,174
2023-01-26T02:36:14.643Z,175
2023-01-26T02:37:23.801Z,176
2023-01-26T02:38:32.020Z,169
2023-01-26T02:39:41.171Z,154
2023-01-26T02:40:50.343Z,177
2023-01-26T02:41:59.526Z,200
2023-01-26T02:43:08.690Z,198
2023-01-26T02:44:17.862Z,199
2023-01-26T02:45:27.120Z,200
2023-01-26T02:46:35.317Z,170
2023-01-26T02:47:43.502Z,172
2023-01-26T02:48:52.677Z,170
2023-01-26T02:50:00.871Z,170
2023-01-26T02:51:09.089Z,189
2023-01-26T02:52:18.228Z,202
2023-01-26T02:53:27.399Z,138
2023-01-26T02:54:36.582Z,163
2023-01-26T02:55:45.755Z,165
2023-01-26T02:56:54.923Z,193
2023-01-26T02:58:04.098Z,187
2023-01-26T02:59:13.288Z,186
2023-01-26T03:00:22.451Z,189
2023-01-26T03:01:31.641Z,192
2023-01-26T03:02:40.788Z,197
2023-01-26T03:03:49.979Z,180
2023-01-26T03:04:59.153Z,183
2023-01-26T03:06:07.334Z,173
2023-01-26T03:07:16.501Z,187
2023-01-26T03:08:25.672Z,186
2023-01-26T03:09:34.856Z,185
2023-01-26T03:10:44.018Z,186
2023-01-26T03:11:53.197Z,190
2023-01-26T03:13:02.376Z,158
2023-01-26T03:15:19.734Z,175
2023-01-26T03:16:27.937Z,177
2023-01-26T03:17:36.120Z,178
2023-01-26T03:18:44.359Z,158
2023-01-26T03:19:52.497Z,159
2023-01-26T03:21:01.685Z,159
2023-01-26T03:22:10.852Z,157
2023-01-26T03:23:20.031Z,158
2023-01-26T03:24:29.208Z,159
2023-01-26T03:25:38.378Z,159
2023-01-26T03:26:47.549Z,158
2023-01-26T03:27:56.729Z,173
2023-01-26T03:29:05.897Z,196
2023-01-26T03:30:15.071Z,196
2023-01-26T03:31:24.244Z,199
2023-01-26T03:32:33.416Z,196
2023-01-26T03:33:42.585Z,195
2023-01-26T03:34:50.779Z,194
2023-01-26T03:35:59.960Z,196
2023-01-26T03:37:09.118Z,196
2023-01-26T03:38:18.307Z,178
2023-01-26T03:39:27.473Z,180
2023-01-26T03:40:36.646Z,180
2023-01-26T03:41:45.830Z,182
2023-01-26T03:42:54.990Z,182
2023-01-26T03:44:04.247Z,171
2023-01-26T03:45:12.363Z,172
2023-01-26T03:46:20.557Z,168
2023-01-26T03:47:28.743Z,177
2023-01-26T03:48:36.940Z,181
2023-01-26T03:49:46.104Z,183
2023-01-26T03:50:55.283Z,192
2023-01-26T03:52:04.507Z,190
2023-01-26T03:53:13.630Z,190
2023-01-26T03:54:22.807Z,191
2023-01-26T03:55:31.980Z,191
2023-01-26T03:56:41.154Z,192
2023-01-26T03:57:50.327Z,191
2023-01-26T03:58:59.506Z,190
2023-01-26T04:00:08.667Z,192
2023-01-26T04:01:17.847Z,192
2023-01-26T04:02:27.015Z,192
2023-01-26T04:03:35.204Z,159
2023-01-26T04:04:44.377Z,177
2023-01-26T04:05:53.563Z,180
2023-01-26T04:07:02.731Z,179
2023-01-26T04:08:11.902Z,177
2023-01-26T04:09:21.087Z,178
2023-01-26T04:10:30.247Z,177
2023-01-26T04:11:38.439Z,178
2023-01-26T04:12:46.630Z,168
2023-01-26T04:13:55.836Z,181
2023-01-26T04:15:05.036Z,181
2023-01-26T04:16:13.166Z,181
2023-01-26T04:17:21.366Z,181
2023-01-26T04:18:30.541Z,181
2023-01-26T04:19:39.825Z,181
2023-01-26T04:20:48.882Z,183
2023-01-26T04:21:57.079Z,181
2023-01-26T04:23:06.250Z,181
2023-01-26T04:24:15.425Z,182
2023-01-26T04:25:24.595Z,182
2023-01-26T04:26:33.777Z,181
2023-01-26T04:27:42.946Z,182
2023-01-26T04:28:52.122Z,180
2023-01-26T04:30:01.289Z,183
2023-01-26T04:31:10.465Z,181
2023-01-26T04:32:19.643Z,158
2023-01-26T04:33:28.801Z,177
2023-01-26T04:34:37.983Z,179
2023-01-26T04:35:47.163Z,179
2023-01-26T04:36:55.340Z,157
2023-01-26T04:38:04.518Z,157
2023-01-26T04:39:13.688Z,168
2023-01-26T04:40:21.885Z,170
2023-01-26T04:41:30.085Z,210
2023-01-26T04:42:38.284Z,207
2023-01-26T04:43:46.456Z,207
2023-01-26T04:44:55.621Z,205
2023-01-26T04:46:04.812Z,207
2023-01-26T04:48:23.150Z,206
2023-01-26T04:49:32.324Z,207
2023-01-26T04:50:41.498Z,205
2023-01-26T04:51:50.697Z,207
2023-01-26T04:52:59.848Z,193
2023-01-26T04:54:09.017Z,194
2023-01-26T04:55:18.186Z,190
2023-01-26T04:56:27.359Z,190
2023-01-26T04:57:36.543Z,192
2023-01-26T04:58:44.722Z,192
2023-01-26T04:59:53.937Z,190
2023-01-26T05:01:03.067Z,192
2023-01-26T05:02:12.246Z,174
2023-01-26T05:03:21.432Z,174
2023-01-26T05:04:30.590Z,180
2023-01-26T05:05:39.772Z,175
2023-01-26T05:06:48.935Z,183
2023-01-26T05:07:57.136Z,182
2023-01-26T05:09:05.318Z,185
2023-01-26T05:10:13.516Z,194
2023-01-26T05:11:21.740Z,194
2023-01-26T05:12:30.874Z,194
2023-01-26T05:13:40.057Z,192
2023-01-26T05:14:49.228Z,193
2023-01-26T05:15:58.398Z,193
2023-01-26T05:17:07.582Z,195
2023-01-26T05:18:16.749Z,197
2023-01-26T05:19:25.918Z,198
2023-01-26T05:20:35.085Z,196
2023-01-26T05:21:44.263Z,191
2023-01-26T05:22:53.446Z,192
2023-01-26T05:24:02.612Z,192
2023-01-26T05:25:11.792Z,191
2023-01-26T05:26:19.980Z,192
2023-01-26T05:27:29.155Z,192
2023-01-26T05:28:38.324Z,193
2023-01-26T05:29:47.502Z,193
2023-01-26T05:30:56.666Z,194
2023-01-26T05:32:05.849Z,192
2023-01-26T05:33:15.005Z,192
2023-01-26T05:34:23.219Z,192
2023-01-26T05:35:31.393Z,192
2023-01-26T05:36:40.569Z,192
2023-01-26T05:37:48.762Z,193
2023-01-26T05:38:56.969Z,195
2023-01-26T05:40:06.127Z,191
2023-01-26T05:41:15.298Z,158
2023-01-26T05:42:24.513Z,152
2023-01-26T05:43:33.655Z,162
2023-01-26T05:44:42.823Z,163
2023-01-26T05:45:52.006Z,163
2023-01-26T05:47:01.166Z,181
2023-01-26T05:48:10.334Z,183
2023-01-26T05:49:19.538Z,183
2023-01-26T05:50:28.688Z,183
2023-01-26T05:51:37.891Z,192
2023-01-26T05:52:47.063Z,194
2023-01-26T05:53:55.290Z,173
2023-01-26T05:55:04.448Z,181
2023-01-26T05:56:13.600Z,198
2023-01-26T05:57:22.771Z,194
2023-01-26T05:58:31.942Z,196
2023-01-26T05:59:41.122Z,195
2023-01-26T06:00:50.312Z,178
2023-01-26T06:01:58.502Z,178
2023-01-26T06:03:06.682Z,183
2023-01-26T06:04:14.878Z,183
2023-01-26T06:06:32.241Z,149
2023-01-26T06:07:41.407Z,149
2023-01-26T06:08:50.594Z,149
2023-01-26T06:09:59.754Z,160
2023-01-26T06:11:08.931Z,158
2023-01-26T06:12:18.096Z,162
2023-01-26T06:13:27.297Z,162
2023-01-26T06:14:36.448Z,162
2023-01-26T06:15:45.612Z,162
2023-01-26T06:16:54.796Z,162
2023-01-26T06:18:03.992Z,169
2023-01-26T06:19:13.131Z,174
2023-01-26T06:20:21.325Z,196
2023-01-26T06:21:30.494Z,196
2023-01-26T06:22:39.676Z,198
2023-01-26T06:23:48.844Z,196
2023-01-26T06:24:58.018Z,196
2023-01-26T06:26:07.192Z,198
2023-01-26T06:27:16.367Z,194
2023-01-26T06:28:25.531Z,192
2023-01-26T06:29:33.730Z,186
2023-01-26T06:30:41.923Z,163
2023-01-26T06:31:50.128Z,161
2023-01-26T06:32:58.316Z,160
2023-01-26T06:34:07.481Z,163
2023-01-26T06:35:16.656Z,177
2023-01-26T06:36:25.833Z,174
2023-01-26T06:37:34.997Z,197
2023-01-26T06:38:44.174Z,190
2023-01-26T06:39:53.348Z,182
2023-01-26T06:41:02.524Z,173
2023-01-26T06:42:11.710Z,170
2023-01-26T06:43:20.874Z,172
2023-01-26T06:44:30.045Z,154
2023-01-26T06:45:39.382Z,163
2023-01-26T06:47:57.603Z,160
2023-01-26T06:49:05.806Z,163
2023-01-26T06:50:14.928Z,160
2023-01-26T06:51:24.116Z,150
2023-01-26T06:52:33.315Z,175
2023-01-26T06:53:42.461Z,190
2023-01-26T06:54:51.610Z,176
2023-01-26T06:56:00.788Z,186
2023-01-26T06:58:18.158Z,183
2023-01-26T06:59:26.366Z,184
2023-01-26T07:00:34.556Z,188
2023-01-26T07:01:43.714Z,187
2023-01-26T07:02:51.910Z,185
2023-01-26T07:04:00.090Z,188
2023-01-26T07:05:09.266Z,190
2023-01-26T07:06:18.447Z,187
2023-01-26T07:07:27.633Z,194
2023-01-26T07:08:36.800Z,192
2023-01-26T07:09:45.967Z,192
2023-01-26T07:10:55.148Z,169
2023-01-26T07:12:04.312Z,163
2023-01-26T07:13:13.501Z,172
2023-01-26T07:14:22.649Z,174
2023-01-26T07:15:31.843Z,177
2023-01-26T07:16:41.008Z,176
2023-01-26T07:17:50.179Z,175
2023-01-26T07:18:58.355Z,161
2023-01-26T07:20:07.560Z,161
2023-01-26T07:21:16.706Z,163
2023-01-26T07:22:25.890Z,193
2023-01-26T07:23:35.054Z,191
2023-01-26T07:24:44.223Z,189
2023-01-26T07:25:53.393Z,199
2023-01-26T07:27:01.597Z,199
2023-01-26T07:28:09.794Z,199
2023-01-26T07:29:17.982Z,201
2023-01-26T07:30:27.178Z,200
2023-01-26T07:31:35.358Z,207
2023-01-26T07:32:44.515Z,207
2023-01-26T07:33:53.696Z,210
2023-01-26T07:35:02.865Z,209
2023-01-26T07:36:12.037Z,208
2023-01-26T07:37:21.211Z,195
2023-01-26T07:38:30.387Z,192
2023-01-26T07:39:39.550Z,191
2023-01-26T07:40:48.734Z,275
2023-01-26T07:41:58.004Z,277
2023-01-26T07:43:07.077Z,276
2023-01-26T07:44:16.254Z,276
2023-01-26T07:45:25.423Z,275
2023-01-26T07:46:33.601Z,273
2023-01-26T07:47:42.781Z,270
2023-01-26T07:48:51.964Z,271
2023-01-26T07:50:01.175Z,271
2023-01-26T07:51:10.343Z,273
2023-01-26T07:52:19.476Z,270
2023-01-26T07:53:27.671Z,292
2023-01-26T07:54:35.874Z,291
2023-01-26T07:55:44.064Z,290
2023-01-26T07:56:52.238Z,291
2023-01-26T07:58:01.414Z,291
2023-01-26T07:59:10.600Z,289
2023-01-26T08:00:19.762Z,240
2023-01-26T08:01:28.928Z,228
2023-01-26T08:02:38.113Z,226
2023-01-26T08:03:47.276Z,227
2023-01-26T08:04:56.457Z,226
2023-01-26T08:06:05.645Z,226
2023-01-26T08:07:14.805Z,230
2023-01-26T08:08:23.973Z,228
2023-01-26T08:09:33.247Z,226
2023-01-26T08:10:42.321Z,254
2023-01-26T08:11:50.523Z,255
2023-01-26T08:12:58.701Z,255
2023-01-26T08:14:07.884Z,256
2023-01-26T08:15:17.063Z,257
2023-01-26T08:16:26.225Z,256
2023-01-26T08:17:35.395Z,255
2023-01-26T08:18:44.580Z,258
2023-01-26T08:19:52.789Z,255
2023-01-26T08:21:00.953Z,253
2023-01-26T08:22:10.124Z,257
2023-01-26T08:23:19.307Z,256
2023-01-26T08:24:28.477Z,257
2023-01-26T08:25:36.885Z,255
2023-01-26T08:26:44.856Z,254
2023-01-26T08:27:54.037Z,254
2023-01-26T08:29:03.203Z,255
2023-01-26T08:30:12.379Z,255
2023-01-26T08:31:21.544Z,254
2023-01-26T08:32:30.736Z,255
2023-01-26T08:33:39.928Z,257
2023-01-26T08:34:49.075Z,256
2023-01-26T08:35:58.253Z,289
2023-01-26T08:37:07.475Z,289
2023-01-26T08:38:16.585Z,290
2023-01-26T08:39:25.760Z,288
2023-01-26T08:40:34.951Z,286
2023-01-26T08:41:43.116Z,282
2023-01-26T08:42:52.402Z,281
2023-01-26T08:44:01.504Z,201
2023-01-26T08:45:10.639Z,200
2023-01-26T08:46:19.813Z,204
2023-01-26T08:47:28.987Z,223
2023-01-26T08:48:38.174Z,225
2023-01-26T08:49:46.358Z,226
2023-01-26T08:50:54.556Z,228
2023-01-26T08:52:03.714Z,225
2023-01-26T08:53:12.890Z,228
2023-01-26T08:54:21.095Z,227
2023-01-26T08:55:29.281Z,227
2023-01-26T08:56:38.447Z,215
2023-01-26T08:57:47.618Z,214
2023-01-26T09:00:06.044Z,213
2023-01-26T09:02:24.320Z,221
2023-01-26T09:03:33.485Z,218
2023-01-26T09:04:42.657Z,219
2023-01-26T09:05:51.837Z,219
2023-01-26T09:07:01.026Z,221
2023-01-26T09:08:10.263Z,222
2023-01-26T09:09:18.452Z,217
2023-01-26T09:10:26.570Z,233
2023-01-26T09:11:35.748Z,249
2023-01-26T09:12:44.917Z,248
2023-01-26T09:13:54.083Z,249
2023-01-26T09:15:03.257Z,248
2023-01-26T09:16:12.436Z,247
2023-01-26T09:17:21.603Z,249
2023-01-26T09:18:30.793Z,249
2023-01-26T09:19:39.952Z,236
2023-01-26T09:20:49.125Z,189
2023-01-26T09:21:57.325Z,192
2023-01-26T09:23:05.521Z,209
2023-01-26T09:24:14.684Z,210
2023-01-26T09:25:23.865Z,211
2023-01-26T09:26:33.065Z,209
2023-01-26T09:27:42.241Z,210
2023-01-26T09:28:51.587Z,210
2023-01-26T09:30:00.546Z,210
2023-01-26T09:31:09.724Z,194
2023-01-26T09:32:18.902Z,190
2023-01-26T09:33:28.068Z,193
2023-01-26T09:34:37.242Z,194
2023-01-26T09:35:46.418Z,194
2023-01-26T09:38:04.772Z,194
2023-01-26T09:39:12.945Z,192
2023-01-26T09:40:22.161Z,192
2023-01-26T09:41:31.362Z,189
2023-01-26T09:42:40.465Z,251
2023-01-26T09:43:49.645Z,185
2023-01-26T09:44:58.814Z,228
2023-01-26T09:46:07.998Z,233
2023-01-26T09:47:17.160Z,280
2023-01-26T09:48:26.334Z,279
2023-01-26T09:49:35.513Z,281
2023-01-26T09:50:44.684Z,278
2023-01-26T09:51:52.891Z,281
2023-01-26T09:53:01.072Z,281
2023-01-26T09:54:09.276Z,280
2023-01-26T09:55:17.541Z,281
2023-01-26T09:56:26.628Z,280
2023-01-26T09:57:35.791Z,284
2023-01-26T09:58:44.965Z,285
2023-01-26T09:59:54.140Z,283
2023-01-26T10:01:03.320Z,284
2023-01-26T10:02:12.508Z,283
2023-01-26T10:03:21.671Z,283
2023-01-26T10:04:30.840Z,284
2023-01-26T10:05:40.011Z,283
2023-01-26T10:06:49.169Z,283
2023-01-26T10:07:58.353Z,284
2023-01-26T10:09:07.535Z,282
2023-01-26T10:10:15.734Z,277
2023-01-26T10:11:24.888Z,276
2023-01-26T10:13:43.232Z,277
2023-01-26T10:14:52.496Z,277
2023-01-26T10:16:01.586Z,275
2023-01-26T10:17:10.769Z,276
2023-01-26T10:18:20.069Z,274
2023-01-26T10:19:28.284Z,274
2023-01-26T10:20:36.315Z,274
2023-01-26T10:21:45.525Z,275
2023-01-26T10:22:54.653Z,275
2023-01-26T10:24:03.828Z,273
2023-01-26T10:25:13.005Z,261
2023-01-26T10:26:22.188Z,253
2023-01-26T10:27:31.352Z,243
2023-01-26T10:28:40.539Z,238
2023-01-26T10:29:49.695Z,240
2023-01-26T10:30:58.867Z,244
2023-01-26T10:32:08.049Z,243
2023-01-26T10:33:17.234Z,283
2023-01-26T10:35:35.579Z,283
2023-01-26T10:36:43.761Z,283
2023-01-26T10:37:52.928Z,283
2023-01-26T10:39:02.104Z,280
2023-01-26T10:40:11.269Z,283
2023-01-26T10:41:20.453Z,283
2023-01-26T10:42:29.621Z,282
2023-01-26T10:43:38.793Z,284
2023-01-26T10:44:47.027Z,282
2023-01-26T10:45:55.212Z,284
2023-01-26T10:47:03.374Z,286
2023-01-26T10:48:11.560Z,282
2023-01-26T10:49:20.743Z,282
2023-01-26T10:50:29.904Z,281
2023-01-26T10:51:39.121Z,258
2023-01-26T10:52:48.249Z,219
2023-01-26T10:53:57.450Z,219
2023-01-26T10:55:06.607Z,218
2023-01-26T10:57:25.012Z,307
2023-01-26T10:58:34.129Z,307
2023-01-26T10:59:43.308Z,9
2023-01-26T11:00:52.483Z,52
2023-01-26T11:02:01.646Z,53
2023-01-26T11:03:09.825Z,54
2023-01-26T11:04:19.011Z,54
2023-01-26T11:06:37.507Z,56
2023-01-26T11:07:45.554Z,61
2023-01-26T11:08:53.742Z,60
2023-01-26T11:10:02.912Z,181
2023-01-26T11:11:12.082Z,182
2023-01-26T11:12:21.274Z,186
2023-01-26T11:13:30.435Z,186
2023-01-26T11:14:39.601Z,185
2023-01-26T11:15:48.875Z,184
2023-01-26T11:16:57.960Z,185
2023-01-26T11:18:07.129Z,187
2023-01-26T11:19:16.291Z,184
2023-01-26T11:21:33.664Z,185
2023-01-26T11:22:41.903Z,182
2023-01-26T11:25:00.291Z,186
2023-01-26T11:26:08.397Z,94
2023-01-26T11:27:16.585Z,125
2023-01-26T11:28:25.855Z,123
2023-01-26T11:29:35.009Z,114
2023-01-26T11:30:44.109Z,113
2023-01-26T11:31:53.285Z,114
2023-01-26T11:33:02.453Z,113
2023-01-26T11:35:20.797Z,115
2023-01-26T11:36:29.966Z,117
2023-01-26T11:37:39.151Z,118
2023-01-26T11:38:48.363Z,117
2023-01-26T11:39:57.499Z,151
2023-01-26T11:41:06.661Z,153
2023-01-26T11:42:14.863Z,150
2023-01-26T11:43:24.042Z,158
2023-01-26T11:44:33.188Z,194
2023-01-26T11:45:42.367Z,194
2023-01-26T11:46:51.537Z,195
2023-01-26T11:48:00.725Z,196
2023-01-26T11:49:09.966Z,194
2023-01-26T11:50:19.068Z,192
2023-01-26T11:52:36.441Z,191
2023-01-26T11:53:44.614Z,192
2023-01-26T11:56:03.013Z,192
2023-01-26T11:57:12.140Z,190
2023-01-26T11:58:21.315Z,190
2023-01-26T11:59:30.480Z,190
2023-01-26T12:00:39.688Z,192
2023-01-26T12:01:48.840Z,188
2023-01-26T12:02:58.016Z,214
2023-01-26T12:04:06.201Z,240
2023-01-26T12:05:15.448Z,255
2023-01-26T12:06:24.558Z,252
2023-01-26T12:07:33.728Z,172
2023-01-26T12:08:42.889Z,181
2023-01-26T12:11:01.247Z,197
2023-01-26T12:12:10.437Z,209
2023-01-26T12:13:19.586Z,214
2023-01-26T12:14:28.748Z,212
2023-01-26T12:15:37.927Z,217
2023-01-26T12:16:47.106Z,214
2023-01-26T12:17:56.292Z,217
2023-01-26T12:19:04.463Z,219
2023-01-26T12:20:12.662Z,219
2023-01-26T12:21:20.857Z,220
2023-01-26T12:22:30.018Z,219
2023-01-26T12:23:39.210Z,221
2023-01-26T12:24:48.379Z,221
2023-01-26T12:25:57.546Z,223
2023-01-26T12:27:06.713Z,224
2023-01-26T12:28:15.903Z,271
2023-01-26T12:29:25.082Z,272
2023-01-26T12:30:34.239Z,277
2023-01-26T12:31:43.410Z,276
2023-01-26T12:32:51.694Z,276
2023-01-26T12:33:59.788Z,279
2023-01-26T12:35:08.959Z,253
2023-01-26T12:36:18.138Z,253
2023-01-26T12:37:27.316Z,216
2023-01-26T12:38:36.500Z,213
2023-01-26T12:39:45.659Z,212
2023-01-26T12:40:54.824Z,212
2023-01-26T12:42:04.002Z,213
2023-01-26T12:43:13.172Z,232
2023-01-26T12:44:22.351Z,231
2023-01-26T12:45:31.592Z,230
2023-01-26T12:46:40.706Z,232
2023-01-26T12:47:49.855Z,190
2023-01-26T12:48:58.064Z,188
2023-01-26T12:50:07.216Z,203
2023-01-26T12:51:16.419Z,205
2023-01-26T12:52:25.644Z,333
2023-01-26T12:53:34.803Z,337
2023-01-26T12:54:43.932Z,337
2023-01-26T12:55:53.227Z,338
2023-01-26T12:57:01.599Z,336
2023-01-26T12:58:09.501Z,336
2023-01-26T12:59:18.655Z,329
2023-01-26T13:00:27.846Z,329
2023-01-26T13:01:36.999Z,329
2023-01-26T13:02:46.176Z,329
2023-01-26T13:03:54.365Z,325
2023-01-26T13:05:02.576Z,323
2023-01-26T13:06:11.725Z,323
2023-01-26T13:07:21.017Z,324
2023-01-26T13:08:30.170Z,325
2023-01-26T13:09:39.250Z,323
2023-01-26T13:10:48.420Z,1
2023-01-26T13:11:57.589Z,0
2023-01-26T13:13:06.786Z,0
2023-01-26T13:14:15.935Z,0
2023-01-26T13:15:25.109Z,0
2023-01-26T13:16:34.280Z,240
2023-01-26T13:17:43.452Z,282
2023-01-26T13:18:52.644Z,289
2023-01-26T13:20:00.822Z,286
2023-01-26T13:21:09.984Z,287
2023-01-26T13:22:19.172Z,288
2023-01-26T13:23:28.344Z,290
2023-01-26T13:24:37.525Z,290
2023-01-26T13:25:46.688Z,303
2023-01-26T13:26:55.847Z,305
2023-01-26T13:28:04.055Z,305
2023-01-26T13:29:12.236Z,310
2023-01-26T13:30:21.415Z,309
2023-01-26T13:31:30.578Z,310
2023-01-26T13:32:39.748Z,309
2023-01-26T13:33:48.926Z,309
2023-01-26T13:34:58.120Z,309
2023-01-26T13:36:07.370Z,290
2023-01-26T13:37:16.513Z,288
2023-01-26T13:38:25.633Z,290
2023-01-26T13:39:34.803Z,290
2023-01-26T13:40:43.960Z,289
2023-01-26T13:41:53.141Z,289
2023-01-26T13:43:02.361Z,289
2023-01-26T13:44:10.495Z,314
2023-01-26T13:45:19.682Z,304
2023-01-26T13:46:28.842Z,302
2023-01-26T13:47:38.024Z,304
2023-01-26T13:48:47.207Z,304
2023-01-26T13:49:56.372Z,304
2023-01-26T13:51:05.595Z,296
2023-01-26T13:52:13.723Z,318
2023-01-26T13:53:21.996Z,323
2023-01-26T13:54:30.115Z,326
2023-01-26T13:55:38.317Z,300
2023-01-26T13:56:47.513Z,298
2023-01-26T13:57:55.683Z,319
2023-01-26T13:59:03.907Z,321
2023-01-26T14:00:13.108Z,321
2023-01-26T14:01:22.278Z,320
2023-01-26T14:02:31.426Z,320
2023-01-26T14:03:40.572Z,319
2023-01-26T14:04:49.715Z,320
2023-01-26T14:05:58.903Z,326
2023-01-26T14:07:08.094Z,334
2023-01-26T14:08:17.247Z,326
2023-01-26T14:09:26.421Z,341
2023-01-26T14:10:35.583Z,325
2023-01-26T14:11:44.761Z,341
2023-01-26T14:12:53.932Z,306
2023-01-26T14:14:02.117Z,303
2023-01-26T14:15:11.302Z,315
2023-01-26T14:16:20.470Z,315
2023-01-26T14:17:29.651Z,319
2023-01-26T14:18:38.888Z,323
2023-01-26T14:19:47.987Z,341
2023-01-26T14:20:57.168Z,324
2023-01-26T14:22:05.392Z,325
2023-01-26T14:23:13.597Z,320
2023-01-26T14:24:22.722Z,325
2023-01-26T14:25:31.892Z,331
2023-01-26T14:26:41.120Z,331
2023-01-26T14:27:50.254Z,10
2023-01-26T14:28:59.470Z,0
2023-01-26T14:30:08.592Z,296
2023-01-26T14:31:17.755Z,293
2023-01-26T14:32:26.949Z,303
2023-01-26T14:33:36.114Z,313
2023-01-26T14:34:45.284Z,313
2023-01-26T14:35:54.458Z,331
2023-01-26T14:37:03.617Z,331
2023-01-26T14:38:11.821Z,331
2023-01-26T14:39:20.985Z,333
2023-01-26T14:40:30.174Z,308
2023-01-26T14:41:39.344Z,330
2023-01-26T14:42:48.509Z,338
2023-01-26T14:43:57.837Z,326
2023-01-26T14:45:06.923Z,326
2023-01-26T14:46:15.240Z,325
2023-01-26T14:47:23.297Z,13
2023-01-26T14:48:32.401Z,11
2023-01-26T14:49:41.596Z,12
2023-01-26T14:50:50.759Z,7
2023-01-26T14:51:59.949Z,0
2023-01-26T14:53:09.096Z,13
2023-01-26T14:54:18.275Z,21
2023-01-26T14:55:27.447Z,0
2023-01-26T14:56:36.627Z,13
2023-01-26T14:57:45.792Z,11
2023-01-26T14:58:54.973Z,11
2023-01-26T15:00:04.135Z,0
2023-01-26T15:01:13.319Z,12
2023-01-26T15:02:21.491Z,12
2023-01-26T15:03:30.680Z,1
2023-01-26T15:04:39.853Z,18
2023-01-26T15:05:49.022Z,8
2023-01-26T15:06:58.190Z,23
2023-01-26T15:08:07.378Z,15
2023-01-26T15:09:16.543Z,12
2023-01-26T15:10:24.719Z,0
2023-01-26T15:11:32.935Z,7
2023-01-26T15:12:41.125Z,11
2023-01-26T15:13:49.321Z,6
2023-01-26T15:14:57.501Z,2
2023-01-26T15:16:05.694Z,11
2023-01-26T15:17:14.947Z,18
2023-01-26T15:18:24.120Z,322
2023-01-26T15:19:33.217Z,322
2023-01-26T15:20:42.546Z,322
2023-01-26T15:21:51.555Z,322
2023-01-26T15:23:00.895Z,322
2023-01-26T15:24:09.949Z,321
2023-01-26T15:25:19.103Z,322
2023-01-26T15:26:28.243Z,322
2023-01-26T15:27:37.415Z,321
2023-01-26T15:28:46.598Z,322
2023-01-26T15:29:55.763Z,322
2023-01-26T15:31:03.942Z,321
2023-01-26T15:32:13.114Z,322
2023-01-26T15:33:22.303Z,322
2023-01-26T15:34:31.472Z,321
2023-01-26T15:35:40.644Z,322
2023-01-26T15:36:49.820Z,322
2023-01-26T15:37:58.993Z,322
2023-01-26T15:39:07.187Z,322
2023-01-26T15:40:15.385Z,322
2023-01-26T15:41:23.569Z,322
2023-01-26T15:42:31.757Z,322
2023-01-26T15:43:40.929Z,322
2023-01-26T15:44:50.106Z,323
2023-01-26T15:45:59.285Z,321
2023-01-26T15:47:08.455Z,322
2023-01-26T15:48:17.623Z,322
2023-01-26T15:49:26.835Z,322
2023-01-26T15:50:35.972Z,321
2023-01-26T15:51:45.143Z,323
2023-01-26T15:52:54.320Z,324
2023-01-26T15:54:03.489Z,321
2023-01-26T15:55:11.699Z,321
2023-01-26T15:56:20.853Z,322
2023-01-26T15:57:30.026Z,322
2023-01-26T15:58:39.203Z,322
2023-01-26T15:59:48.373Z,322
2023-01-26T16:00:57.573Z,322
2023-01-26T16:02:06.721Z,323
2023-01-26T16:03:15.905Z,322
2023-01-26T16:04:25.074Z,295
2023-01-26T16:05:33.268Z,295
2023-01-26T16:06:41.476Z,295
2023-01-26T16:07:51.032Z,294
2023-01-26T16:08:58.835Z,295
2023-01-26T16:10:07.017Z,296
2023-01-26T16:12:25.366Z,294
2023-01-26T16:13:34.525Z,295
2023-01-26T16:14:43.701Z,296